Time;durP1;ratioP1;P1;durP2;ratioP2;P2;SDS_P1;SDS_P2;PMS_P1;PMS_P2;Temp;Humidity;BMP_temperature;BMP_pressure;BME280_temperature;BME280_humidity;BME280_pressure;Samples;Min_cycle;Max_cycle;Signal;HPM_P1;HPM_P2
2023/09/21 03:28:40;;;;;;;8.37;4.00;;;;;;;18.85;71.34;99370.13;4989842;28;20256;-74
2023/09/21 03:31:12;;;;;;;7.03;4.10;;;;;;;18.85;71.64;99370.13;4986645;28;20218;-75
2023/09/21 03:33:41;;;;;;;8.23;3.80;;;;;;;18.85;71.50;99359.38;4986390;28;20206;-75
2023/09/21 03:36:13;;;;;;;6.40;3.60;;;;;;;18.84;71.76;99357.72;4989280;28;20198;-74
2023/09/21 03:38:43;;;;;;;7.63;3.77;;;;;;;18.85;71.71;99359.38;4988399;28;20217;-75
2023/09/21 03:41:13;;;;;;;6.67;4.03;;;;;;;18.83;71.81;99360.63;4990042;28;20264;-74
2023/09/21 03:43:45;;;;;;;6.53;4.13;;;;;;;18.70;72.82;99362.47;4988344;28;20209;-75
2023/09/21 03:46:14;;;;;;;8.03;4.03;;;;;;;18.60;72.87;99356.81;4987116;28;20814;-72
2023/09/21 03:48:44;;;;;;;5.70;3.80;;;;;;;18.61;72.85;99357.66;4985395;28;20199;-75
2023/09/21 03:51:14;;;;;;;6.03;3.87;;;;;;;18.68;73.19;99353.00;4986838;28;20222;-74
2023/09/21 03:53:42;;;;;;;6.63;3.77;;;;;;;18.69;72.46;99344.72;4987876;28;20229;-74
2023/09/21 03:56:11;;;;;;;6.57;4.07;;;;;;;18.64;72.80;99349.97;4987907;28;20230;-73
2023/09/21 03:58:40;;;;;;;7.50;4.00;;;;;;;18.50;73.74;99336.91;4988434;28;20545;-70
2023/09/21 04:01:11;;;;;;;8.90;4.30;;;;;;;18.41;74.45;99336.38;4989075;28;20199;-73
2023/09/21 04:03:41;;;;;;;9.30;4.00;;;;;;;18.45;74.63;99326.84;4986857;28;20716;-75
2023/09/21 04:06:11;;;;;;;10.23;3.80;;;;;;;18.41;74.39;99321.09;4987405;28;20261;-73
2023/09/21 04:08:39;;;;;;;7.07;3.83;;;;;;;18.39;74.45;99317.81;4988865;28;20281;-74
2023/09/21 04:11:08;;;;;;;8.40;3.77;;;;;;;18.30;75.35;99335.28;4987069;28;20217;-74
2023/09/21 04:13:37;;;;;;;6.87;3.97;;;;;;;18.31;75.31;99331.56;4988639;28;20316;-72
2023/09/21 04:16:06;;;;;;;9.53;4.03;;;;;;;18.39;74.75;99317.81;4989714;28;20198;-75
2023/09/21 04:18:37;;;;;;;7.97;3.93;;;;;;;18.41;74.79;99318.44;4987215;28;20214;-74
2023/09/21 04:21:09;;;;;;;10.13;4.97;;;;;;;18.37;75.02;99316.44;4988907;28;20268;-74
2023/09/21 04:23:48;;;;;;;8.77;4.23;;;;;;;18.31;75.02;99310.09;4987783;28;20229;-73
2023/09/21 04:26:17;;;;;;;12.47;4.33;;;;;;;18.28;75.40;99307.06;4988516;28;20214;-74
2023/09/21 04:28:49;;;;;;;14.07;4.80;;;;;;;18.27;75.71;99306.22;4987566;28;21026;-72
2023/09/21 04:31:19;;;;;;;7.33;4.13;;;;;;;18.29;75.49;99301.47;4988522;28;20657;-74
2023/09/21 04:33:51;;;;;;;9.60;4.33;;;;;;;18.27;75.43;99295.50;4988114;28;20225;-74
2023/09/21 04:36:20;;;;;;;8.83;3.97;;;;;;;18.26;76.18;99296.53;4968930;28;20198;-74
2023/09/21 04:38:50;;;;;;;9.90;4.03;;;;;;;18.25;76.27;99292.22;4988216;28;20877;-74
2023/09/21 04:41:20;;;;;;;9.93;4.40;;;;;;;18.23;76.64;99294.31;4989919;28;20206;-70
2023/09/21 04:43:49;;;;;;;6.93;3.93;;;;;;;18.31;75.42;99295.84;4987913;28;20328;-73
2023/09/21 04:46:19;;;;;;;8.83;3.87;;;;;;;18.45;75.77;99301.88;4988642;28;20322;-74
2023/09/21 04:48:49;;;;;;;7.97;4.37;;;;;;;18.56;74.65;99298.44;4987334;28;20264;-73
2023/09/21 04:51:18;;;;;;;8.23;4.10;;;;;;;18.65;74.13;99303.25;4989390;28;20198;-75
2023/09/21 04:53:50;;;;;;;10.07;3.80;;;;;;;18.73;73.33;99299.44;4977325;28;20306;-74
2023/09/21 04:56:19;;;;;;;8.93;4.30;;;;;;;18.78;73.41;99291.50;4987341;28;20289;-72
2023/09/21 04:58:47;;;;;;;10.73;3.87;;;;;;;18.76;73.70;99296.28;4986656;28;20206;-74
2023/09/21 05:01:18;;;;;;;8.13;3.93;;;;;;;18.63;74.51;99283.06;4988521;28;20762;-72
2023/09/21 05:03:46;;;;;;;8.17;3.83;;;;;;;18.57;74.62;99292.84;4988174;28;20280;-74
2023/09/21 05:06:18;;;;;;;6.37;3.67;;;;;;;18.50;74.76;99291.25;4987795;28;20206;-75
2023/09/21 05:08:47;;;;;;;7.10;4.27;;;;;;;18.41;75.44;99294.28;4989133;28;20198;-73
2023/09/21 05:11:17;;;;;;;6.63;3.77;;;;;;;18.34;76.00;99290.88;4989060;28;20258;-74
2023/09/21 05:13:46;;;;;;;10.33;3.77;;;;;;;18.28;76.65;99294.47;4987857;28;20226;-72
2023/09/21 05:16:18;;;;;;;10.27;4.47;;;;;;;18.26;76.87;99299.22;4987268;28;20210;-74
2023/09/21 05:18:50;;;;;;;9.37;4.70;;;;;;;18.30;76.72;99302.25;4986553;28;20195;-74
2023/09/21 05:21:20;;;;;;;11.47;4.30;;;;;;;18.38;76.14;99294.72;4989656;28;20618;-76
2023/09/21 05:23:48;;;;;;;7.77;4.17;;;;;;;18.39;76.23;99295.53;4988186;28;20214;-74
2023/09/21 05:26:16;;;;;;;11.97;4.73;;;;;;;18.33;76.63;99294.59;4987356;28;20610;-75
2023/09/21 05:28:46;;;;;;;8.47;3.87;;;;;;;18.28;77.07;99297.16;4987224;28;20206;-73
2023/09/21 05:31:15;;;;;;;9.70;3.90;;;;;;;18.24;77.53;99293.25;4986984;28;20221;-76
2023/09/21 05:33:43;;;;;;;11.93;4.23;;;;;;;18.28;77.07;99294.47;4984948;28;20317;-74
2023/09/21 05:36:12;;;;;;;12.43;4.03;;;;;;;18.36;77.05;99304.88;4987402;28;20203;-74
2023/09/21 05:38:46;;;;;;;9.93;4.00;;;;;;;18.50;76.60;99321.63;4985047;28;20210;-74
2023/09/21 05:41:15;;;;;;;11.10;4.07;;;;;;;18.62;75.85;99316.34;4986010;28;20285;-73
2023/09/21 05:43:43;;;;;;;8.50;4.43;;;;;;;18.74;74.76;99309.94;4985272;28;20206;-74
2023/09/21 05:46:12;;;;;;;8.50;4.43;;;;;;;18.67;75.03;99297.66;4985967;28;20639;-73
2023/09/21 05:48:40;;;;;;;6.47;4.70;;;;;;;18.57;75.99;99305.44;4986294;28;20202;-75
2023/09/21 05:51:11;;;;;;;6.13;3.70;;;;;;;18.48;76.46;99309.47;4985735;28;20617;-75
2023/09/21 05:53:41;;;;;;;7.63;4.47;;;;;;;18.37;77.07;99311.88;4987509;28;20223;-72
2023/09/21 05:56:14;;;;;;;9.27;3.97;;;;;;;18.49;76.92;99311.09;4985549;28;20213;-74
2023/09/21 05:58:42;;;;;;;8.17;3.83;;;;;;;18.59;76.03;99309.53;4987185;28;20250;-75
2023/09/21 06:01:14;;;;;;;7.80;3.80;;;;;;;18.70;75.92;99310.63;4987040;28;20198;-75
2023/09/21 06:03:45;;;;;;;5.70;3.70;;;;;;;18.78;75.51;99313.81;4987244;28;20202;-76
2023/09/21 06:08:43;;;;;;;8.10;3.83;;;;;;;18.63;76.58;99302.69;4970728;28;20215;-66
2023/09/21 06:11:13;;;;;;;6.73;4.07;;;;;;;18.50;77.05;99308.19;4991547;28;20204;-65
2023/09/21 06:13:41;;;;;;;8.97;4.40;;;;;;;18.52;77.43;99311.47;4992209;28;20198;-65
2023/09/21 06:16:09;;;;;;;8.67;4.23;;;;;;;18.63;77.35;99326.03;4992420;28;20205;-68
2023/09/21 06:18:36;;;;;;;10.10;3.90;;;;;;;18.73;76.70;99331.66;4991850;28;20640;-65
2023/09/21 06:21:06;;;;;;;5.87;3.97;;;;;;;18.84;76.21;99327.38;4992194;28;20236;-67
2023/09/21 06:23:34;;;;;;;8.73;4.73;;;;;;;18.83;76.25;99329.22;4991978;28;20234;-66
2023/09/21 06:26:03;;;;;;;10.37;4.53;;;;;;;18.76;77.30;99331.19;4992144;28;20228;-67
2023/09/21 06:28:32;;;;;;;6.00;4.03;;;;;;;18.72;77.43;99327.34;4992118;28;20237;-67
2023/09/21 06:31:04;;;;;;;6.07;3.70;;;;;;;18.67;78.26;99319.13;4991784;28;20198;-67
2023/09/21 06:33:32;;;;;;;11.23;4.03;;;;;;;18.65;78.47;99321.22;4992866;28;20194;-68
2023/09/21 06:36:00;;;;;;;10.50;4.97;;;;;;;18.63;77.85;99317.97;4991725;28;20702;-67
2023/09/21 06:38:27;;;;;;;8.67;3.93;;;;;;;18.68;77.56;99315.41;4992220;28;20206;-65
2023/09/21 06:40:55;;;;;;;9.27;4.17;;;;;;;18.77;78.09;99330.16;4983947;28;20206;-68
2023/09/21 06:43:26;;;;;;;6.47;3.73;;;;;;;18.88;77.23;99320.50;4988800;28;20229;-67
2023/09/21 06:45:55;;;;;;;8.53;4.20;;;;;;;18.96;77.91;99312.94;4992319;28;20312;-66
2023/09/21 06:48:23;;;;;;;10.73;4.17;;;;;;;19.03;78.40;99305.59;4991126;28;20299;-68
2023/09/21 06:50:51;;;;;;;5.97;4.20;;;;;;;18.99;78.71;99301.72;4992520;28;20635;-66
2023/09/21 06:53:19;;;;;;;8.00;4.00;;;;;;;18.95;79.05;99300.53;4993182;28;23372;-65
2023/09/21 06:55:46;;;;;;;6.20;3.73;;;;;;;18.91;79.94;99301.25;4993582;28;20466;-66
2023/09/21 06:58:14;;;;;;;10.40;4.53;;;;;;;18.88;79.12;99297.16;4992899;28;20301;-64
2023/09/21 07:00:42;;;;;;;8.73;4.23;;;;;;;18.97;77.70;99297.63;4992451;28;20220;-67
2023/09/21 07:03:12;;;;;;;8.57;4.57;;;;;;;19.07;79.41;99287.16;4992612;28;20202;-68
2023/09/21 07:05:40;;;;;;;7.00;3.87;;;;;;;19.13;78.55;99296.94;4993069;28;20202;-66
2023/09/21 07:08:08;;;;;;;23.23;4.73;;;;;;;19.22;78.42;99294.75;4998498;28;20497;-66
2023/09/21 07:10:36;;;;;;;7.13;4.03;;;;;;;19.22;78.25;99287.50;4997699;28;20214;-66
2023/09/21 07:13:05;;;;;;;7.13;3.33;;;;;;;19.25;77.43;99286.22;4996919;28;20292;-67
2023/09/21 07:15:33;;;;;;;6.93;3.70;;;;;;;19.27;76.96;99286.78;4995736;28;20702;-67
2023/09/21 07:18:00;;;;;;;9.47;4.43;;;;;;;19.33;77.13;99281.31;4997712;28;20224;-66
2023/09/21 07:20:30;;;;;;;6.07;3.63;;;;;;;19.30;76.83;99275.59;4997815;28;20237;-68
2023/09/21 07:22:57;;;;;;;10.43;4.10;;;;;;;19.35;76.99;99283.78;4995501;28;20218;-67
2023/09/21 07:25:25;;;;;;;12.97;4.03;;;;;;;19.29;77.44;99279.31;4996033;28;20663;-69
2023/09/21 07:27:54;;;;;;;7.27;4.27;;;;;;;19.25;78.28;99272.78;4995981;28;20215;-69
2023/09/21 07:30:22;;;;;;;8.40;4.07;;;;;;;19.29;78.22;99265.88;4996568;28;20285;-67
2023/09/21 07:32:50;;;;;;;8.03;4.30;;;;;;;19.30;78.43;99271.03;4997843;28;20695;-69
2023/09/21 07:35:20;;;;;;;11.67;4.40;;;;;;;19.38;77.68;99265.31;4996210;28;20324;-70
2023/09/21 07:37:49;;;;;;;7.17;3.97;;;;;;;19.54;77.29;99266.50;4996096;28;20295;-64
2023/09/21 07:40:17;;;;;;;8.90;4.37;;;;;;;19.65;75.98;99272.91;4997878;28;20220;-68
2023/09/21 07:42:45;;;;;;;6.53;4.27;;;;;;;19.74;75.92;99272.31;4998907;28;20280;-69
2023/09/21 07:45:13;;;;;;;10.90;4.73;;;;;;;19.77;75.72;99271.84;4997107;28;20562;-68
2023/09/21 07:47:41;;;;;;;8.70;4.20;;;;;;;19.77;75.36;99269.16;4994178;28;20218;-67
2023/09/21 07:50:09;;;;;;;7.73;4.40;;;;;;;19.74;75.07;99266.94;4995776;28;20221;-67
2023/09/21 07:52:37;;;;;;;9.00;4.20;;;;;;;19.68;75.70;99267.88;4994847;28;20242;-68
2023/09/21 07:55:08;;;;;;;9.97;4.30;;;;;;;19.69;75.49;99260.66;4994481;28;20233;-68
2023/09/21 07:57:37;;;;;;;8.73;4.20;;;;;;;19.62;76.16;99263.44;4998001;28;20267;-68
2023/09/21 08:00:09;;;;;;;6.13;3.23;;;;;;;19.61;76.71;99258.31;4995461;28;20202;-68
2023/09/21 08:02:37;;;;;;;12.00;3.73;;;;;;;19.52;76.82;99261.38;4996190;28;20350;-68
2023/09/21 08:05:05;;;;;;;12.20;3.53;;;;;;;19.56;76.34;99255.50;4998384;28;20220;-68
2023/09/21 08:07:35;;;;;;;7.17;4.10;;;;;;;19.58;76.95;99256.91;4992597;28;20217;-68
2023/09/21 08:10:05;;;;;;;10.43;4.37;;;;;;;19.59;77.00;99253.16;4996912;28;20205;-66
2023/09/21 08:12:36;;;;;;;9.93;4.30;;;;;;;19.60;76.36;99244.06;4995782;28;20213;-68
2023/09/21 08:15:06;;;;;;;7.40;4.33;;;;;;;19.62;77.22;99247.31;4995964;28;20619;-68
2023/09/21 08:17:36;;;;;;;7.97;5.07;;;;;;;19.64;76.04;99244.38;4997137;28;20210;-67
2023/09/21 08:20:04;;;;;;;8.87;4.57;;;;;;;19.67;76.34;99244.75;4997445;28;20797;-68
2023/09/21 08:22:33;;;;;;;10.73;4.07;;;;;;;19.75;76.57;99241.69;4997376;28;20205;-66
2023/09/21 08:25:01;;;;;;;14.23;4.60;;;;;;;19.80;75.96;99246.34;4995140;28;20232;-69
2023/09/21 08:27:29;;;;;;;11.97;4.50;;;;;;;19.84;76.23;99234.88;4994247;28;20638;-68
2023/09/21 08:29:58;;;;;;;9.03;3.43;;;;;;;19.86;74.99;99232.78;4996776;28;20217;-67
2023/09/21 08:32:26;;;;;;;9.97;4.27;;;;;;;19.91;75.61;99229.34;4997023;28;20208;-68
2023/09/21 08:34:54;;;;;;;12.37;4.70;;;;;;;19.97;74.35;99224.88;4993813;28;20523;-67
2023/09/21 08:37:22;;;;;;;7.20;4.17;;;;;;;20.02;75.52;99219.63;4995084;28;20217;-67
2023/09/21 08:39:49;;;;;;;8.27;4.87;;;;;;;20.08;74.93;99218.66;4994172;28;20224;-67
2023/09/21 08:42:18;;;;;;;12.17;4.43;;;;;;;20.14;73.42;99212.34;4995165;28;20221;-68
2023/09/21 08:44:47;;;;;;;9.33;3.80;;;;;;;20.16;73.15;99202.13;4992165;28;20293;-66
2023/09/21 08:47:16;;;;;;;12.07;3.87;;;;;;;20.24;72.24;99201.72;4995343;28;20216;-68
2023/09/21 08:50:02;;;;;;;7.53;3.77;;;;;;;20.59;71.63;99194.31;4986927;28;20292;-66
2023/09/21 08:52:33;;;;;;;12.37;3.43;;;;;;;21.17;68.77;99193.13;4994527;28;20281;-67
2023/09/21 08:55:01;;;;;;;6.60;3.13;;;;;;;22.46;65.05;99187.91;4995853;28;20543;-68
2023/09/21 08:57:30;;;;;;;8.83;3.47;;;;;;;24.02;58.07;99189.16;4994827;28;20782;-68
2023/09/21 09:00:06;;;;;;;9.23;3.53;;;;;;;27.74;48.89;99188.09;4995570;28;20704;-67
2023/09/21 09:02:37;;;;;;;14.73;4.00;;;;;;;33.81;36.53;99187.13;4996997;28;20240;-68
2023/09/21 09:05:06;;;;;;;9.10;3.97;;;;;;;35.97;32.13;99183.88;4996697;28;20221;-69
2023/09/21 09:07:39;;;;;;;13.93;3.33;;;;;;;36.58;30.09;99180.16;4993870;28;20216;-68
2023/09/21 09:10:09;;;;;;;6.53;3.28;;;;;;;35.99;30.86;99198.09;4996607;28;20221;-68
2023/09/21 09:12:39;;;;;;;8.07;3.05;;;;;;;33.88;33.39;99192.91;4994531;28;20706;-68
2023/09/21 09:15:09;;;;;;;5.30;3.15;;;;;;;31.68;36.66;99189.44;4995009;28;20202;-68
2023/09/21 09:17:40;;;;;;;6.75;2.53;;;;;;;30.01;39.38;99182.66;4995052;28;20340;-66
2023/09/21 09:20:08;;;;;;;11.07;3.60;;;;;;;28.75;41.98;99180.41;4995650;28;20194;-67
2023/09/21 09:22:37;;;;;;;10.52;2.83;;;;;;;27.69;44.67;99180.00;4994125;28;20232;-66
2023/09/21 09:25:06;;;;;;;8.60;2.97;;;;;;;27.31;46.00;99179.88;4993392;28;20542;-68
2023/09/21 09:27:35;;;;;;;6.35;2.90;;;;;;;26.93;46.55;99180.78;4994383;28;20301;-67
2023/09/21 09:30:04;;;;;;;6.30;2.78;;;;;;;26.64;47.49;99186.19;4994815;28;20639;-68
2023/09/21 09:32:40;;;;;;;6.72;2.63;;;;;;;26.21;48.27;99180.47;4995109;28;20206;-69
2023/09/21 09:35:12;;;;;;;4.53;2.33;;;;;;;25.58;49.80;99171.28;4995888;28;20208;-72
2023/09/21 09:37:42;;;;;;;7.95;3.10;;;;;;;25.11;51.51;99164.34;4993330;28;20218;-68
2023/09/21 09:40:12;;;;;;;10.52;3.42;;;;;;;24.98;52.37;99166.84;4997031;28;20206;-67
2023/09/21 09:42:41;;;;;;;6.22;2.65;;;;;;;24.83;52.65;99164.91;4996188;28;20285;-68
2023/09/21 09:45:16;;;;;;;10.23;3.10;;;;;;;24.75;52.72;99165.44;4994546;28;20848;-70
2023/09/21 09:47:50;;;;;;;10.05;2.70;;;;;;;24.68;52.58;99162.22;4994628;28;20644;-69
2023/09/21 09:50:23;;;;;;;4.95;2.60;;;;;;;24.64;52.79;99151.06;4996135;28;20200;-68
2023/09/21 09:53:02;;;;;;;6.00;2.95;;;;;;;24.62;53.13;99138.91;4994485;28;20305;-67
2023/09/21 09:55:33;;;;;;;11.85;3.88;;;;;;;24.55;53.29;99133.75;4995168;28;20216;-67
2023/09/21 09:58:01;;;;;;;9.25;3.33;;;;;;;24.51;54.18;99142.69;4994210;28;20324;-67
2023/09/21 10:00:30;;;;;;;6.97;2.80;;;;;;;24.67;53.05;99130.75;4995663;28;20210;-68
2023/09/21 10:02:59;;;;;;;4.78;2.58;;;;;;;24.81;52.17;99125.59;4987482;28;20206;-73
2023/09/21 10:05:28;;;;;;;5.45;2.67;;;;;;;24.93;51.37;99126.97;4994062;28;20220;-68
2023/09/21 10:08:00;;;;;;;6.65;2.50;;;;;;;24.95;51.29;99115.84;4994194;28;20832;-67
2023/09/21 10:10:31;;;;;;;7.05;2.28;;;;;;;24.79;51.25;99117.75;4994590;28;20217;-68
2023/09/21 10:13:00;;;;;;;6.82;2.47;;;;;;;24.61;52.03;99116.41;4995305;28;20321;-69
2023/09/21 10:15:31;;;;;;;5.28;2.88;;;;;;;24.49;52.93;99117.75;4994663;28;20292;-68
2023/09/21 10:17:58;;;;;;;4.68;2.05;;;;;;;24.44;52.87;99120.47;4994852;28;20217;-68
2023/09/21 10:20:32;;;;;;;7.38;2.55;;;;;;;24.36;52.41;99109.09;4993430;28;20218;-68
2023/09/21 10:23:01;;;;;;;8.20;2.22;;;;;;;24.20;53.21;99115.53;4986203;28;20268;-68
2023/09/21 10:25:38;;;;;;;5.47;2.28;;;;;;;24.21;52.86;99111.78;4995106;28;20279;-68
2023/09/21 10:28:37;;;;;;;5.25;2.20;;;;;;;24.20;52.32;99115.53;4993215;28;20297;-68
2023/09/21 10:31:24;;;;;;;8.75;2.60;;;;;;;24.08;53.09;99106.06;4995156;28;20209;-68
2023/09/21 10:34:11;;;;;;;5.45;2.00;;;;;;;24.04;53.42;99105.78;4994105;28;20348;-70
2023/09/21 10:36:44;;;;;;;4.78;2.20;;;;;;;24.08;52.73;99101.47;4992921;28;20316;-70
2023/09/21 10:39:24;;;;;;;3.97;2.50;;;;;;;24.12;52.11;99090.91;4995057;28;21253;-68
2023/09/21 10:41:55;;;;;;;4.18;2.22;;;;;;;24.02;52.80;99097.94;4996367;28;20224;-68
2023/09/21 10:44:59;;;;;;;5.85;2.35;;;;;;;24.01;52.78;99095.50;4998640;28;20284;-69
2023/09/21 10:47:29;;;;;;;6.68;2.20;;;;;;;24.04;52.79;99100.38;4995986;28;20198;-68
2023/09/21 10:50:00;;;;;;;8.45;2.60;;;;;;;24.24;52.25;99099.63;4998387;28;20205;-69
2023/09/21 10:52:30;;;;;;;6.88;2.92;;;;;;;24.36;52.04;99087.41;4996572;28;20212;-67
2023/09/21 10:54:58;;;;;;;8.32;2.60;;;;;;;24.50;52.33;99081.47;4999205;28;20229;-68
2023/09/21 10:57:27;;;;;;;3.83;2.40;;;;;;;24.63;51.77;99080.88;4994597;28;20353;-68
2023/09/21 10:59:59;;;;;;;6.50;2.40;;;;;;;24.70;51.08;99073.31;4997720;28;20267;-67
2023/09/21 11:02:40;;;;;;;6.20;2.30;;;;;;;24.77;51.00;99071.13;4997111;28;20213;-67
2023/09/21 11:05:09;;;;;;;5.45;2.17;;;;;;;24.77;51.24;99071.13;4996402;28;20683;-69
2023/09/21 11:07:40;;;;;;;4.65;2.15;;;;;;;24.77;51.49;99057.56;4996427;28;20218;-67
2023/09/21 11:10:11;;;;;;;7.15;2.80;;;;;;;24.71;51.71;99055.97;4996960;28;20640;-68
2023/09/21 11:12:40;;;;;;;4.00;2.10;;;;;;;24.65;51.87;99057.84;4997406;28;20277;-68
2023/09/21 11:15:12;;;;;;;4.82;2.30;;;;;;;24.82;50.98;99057.53;4995208;28;20658;-68
2023/09/21 11:17:42;;;;;;;9.35;2.45;;;;;;;24.65;51.63;99052.44;4995068;28;20599;-67
2023/09/21 11:20:13;;;;;;;5.32;2.25;;;;;;;24.57;52.33;99039.44;4997663;28;20209;-69
2023/09/21 11:22:43;;;;;;;5.47;2.33;;;;;;;24.42;52.58;99039.47;4997624;28;20234;-68
2023/09/21 11:25:12;;;;;;;3.90;1.70;;;;;;;24.29;53.14;99026.47;4998444;28;20307;-68
2023/09/21 11:27:42;;;;;;;3.97;2.30;;;;;;;24.31;52.86;99027.84;4996288;28;20210;-68
2023/09/21 11:30:13;;;;;;;5.63;2.20;;;;;;;24.23;53.32;99022.97;4996506;28;20222;-67
2023/09/21 11:32:43;;;;;;;5.72;2.40;;;;;;;24.30;53.18;99012.66;4995599;28;20238;-69
2023/09/21 11:35:12;;;;;;;4.38;2.15;;;;;;;24.43;52.44;99010.50;4998510;28;20197;-66
2023/09/21 11:37:40;;;;;;;5.93;2.10;;;;;;;24.43;51.95;99010.50;4996982;28;20224;-68
2023/09/21 11:40:13;;;;;;;4.65;2.10;;;;;;;24.40;52.27;99011.03;4997487;28;20297;-66
2023/09/21 11:42:44;;;;;;;4.55;2.22;;;;;;;24.42;51.98;99008.88;4995096;28;20761;-69
2023/09/21 11:45:16;;;;;;;5.68;2.20;;;;;;;24.46;51.91;99008.03;4997326;28;20217;-67
2023/09/21 11:47:49;;;;;;;4.80;2.00;;;;;;;24.49;52.28;99003.97;4996826;28;20433;-67
2023/09/21 11:50:30;;;;;;;11.32;2.40;;;;;;;24.87;50.78;99007.94;4995445;28;20202;-68
2023/09/21 11:52:57;;;;;;;3.63;1.70;;;;;;;25.09;50.39;98998.38;4995249;28;20213;-68
2023/09/21 11:55:28;;;;;;;7.00;2.00;;;;;;;25.20;50.44;98999.16;4997585;28;20198;-67
2023/09/21 11:58:07;;;;;;;6.35;1.90;;;;;;;25.18;50.27;99000.50;4993316;28;20626;-68
2023/09/21 12:00:43;;;;;;;4.50;1.92;;;;;;;25.13;50.12;98998.63;4996469;28;20194;-67
2023/09/21 12:03:18;;;;;;;6.85;1.90;;;;;;;25.11;50.04;98995.38;4994937;28;20229;-68
2023/09/21 12:05:46;;;;;;;5.28;1.95;;;;;;;24.88;51.03;98988.69;4996168;28;20210;-68
2023/09/21 12:08:15;;;;;;;5.00;1.83;;;;;;;24.89;51.52;98975.94;4994969;28;20217;-68
2023/09/21 12:10:45;;;;;;;4.00;2.20;;;;;;;24.82;51.27;98976.22;4996805;28;20671;-67
2023/09/21 12:13:13;;;;;;;5.45;2.28;;;;;;;24.80;51.27;98981.13;4995006;28;20216;-70
2023/09/21 12:15:42;;;;;;;3.88;1.65;;;;;;;24.83;52.00;98972.44;4996678;28;20605;-68
2023/09/21 12:18:10;;;;;;;5.03;1.88;;;;;;;24.86;51.08;98963.75;4994284;28;20222;-68
2023/09/21 12:20:44;;;;;;;3.33;1.45;;;;;;;24.83;51.55;98961.59;4995561;28;20201;-67
2023/09/21 12:23:12;;;;;;;4.57;1.70;;;;;;;24.99;50.86;98954.22;4993227;28;20209;-66
2023/09/21 12:25:40;;;;;;;4.90;1.58;;;;;;;25.18;50.02;98940.84;4995395;28;20610;-67
2023/09/21 12:28:11;;;;;;;3.97;1.73;;;;;;;25.21;49.55;98940.28;4995089;28;20221;-66
2023/09/21 12:30:41;;;;;;;2.83;1.35;;;;;;;25.13;49.91;98930.03;4994972;28;20260;-66
2023/09/21 12:33:11;;;;;;;5.03;1.40;;;;;;;25.27;49.71;98929.13;4994194;28;20292;-68
2023/09/21 12:36:00;;;;;;;3.45;1.42;;;;;;;25.26;49.38;98927.50;4994417;28;20222;-68
2023/09/21 12:38:28;;;;;;;2.22;1.23;;;;;;;25.28;48.81;98921.78;4993681;28;20336;-68
2023/09/21 12:40:55;;;;;;;5.70;1.55;;;;;;;25.17;49.51;98914.81;4990623;28;20624;-66
2023/09/21 12:43:24;;;;;;;3.38;1.35;;;;;;;25.20;49.11;98906.94;4996061;28;20217;-68
2023/09/21 12:45:53;;;;;;;3.28;1.30;;;;;;;25.10;49.50;98917.81;4996041;28;20296;-69
2023/09/21 12:48:20;;;;;;;5.10;1.45;;;;;;;24.88;50.26;98909.25;4996467;28;20822;-68
2023/09/21 12:50:48;;;;;;;3.35;1.20;;;;;;;24.83;50.51;98906.56;4995513;28;20688;-68
2023/09/21 12:53:16;;;;;;;4.97;1.50;;;;;;;24.82;50.17;98899.50;4995252;28;20204;-70
2023/09/21 12:55:44;;;;;;;2.60;1.58;;;;;;;24.71;50.28;98904.19;4996537;28;20202;-68
2023/09/21 12:58:12;;;;;;;6.60;1.60;;;;;;;24.72;50.29;98916.63;4995223;28;20514;-67
2023/09/21 13:00:41;;;;;;;3.22;1.60;;;;;;;24.69;50.22;98909.06;4994837;28;20212;-71
2023/09/21 13:03:12;;;;;;;3.70;1.55;;;;;;;24.68;50.56;98905.56;4994071;28;20325;-69
2023/09/21 13:05:43;;;;;;;8.13;1.55;;;;;;;24.61;50.84;98901.53;4993758;28;20208;-68
2023/09/21 13:08:12;;;;;;;7.75;1.38;;;;;;;24.56;51.91;98904.22;4993664;28;20217;-67
2023/09/21 13:10:40;;;;;;;3.50;1.55;;;;;;;24.66;52.08;98902.31;4995162;28;20245;-69
2023/09/21 13:13:08;;;;;;;7.60;1.55;;;;;;;24.60;52.29;98903.41;4992449;28;20206;-66
2023/09/21 13:15:39;;;;;;;3.63;1.08;;;;;;;24.47;52.47;98895.06;4996705;28;20325;-67
2023/09/21 13:18:10;;;;;;;3.78;1.45;;;;;;;24.40;52.34;98886.41;4993876;28;20236;-68
2023/09/21 13:20:38;;;;;;;3.45;1.33;;;;;;;24.44;52.14;98887.50;4994136;28;20729;-67
2023/09/21 13:23:07;;;;;;;4.07;1.33;;;;;;;24.42;52.24;98884.25;4993470;28;20994;-69
2023/09/21 13:25:34;;;;;;;4.93;1.67;;;;;;;24.42;52.99;98876.13;4994469;28;20209;-68
2023/09/21 13:28:02;;;;;;;2.35;1.27;;;;;;;24.45;53.24;98878.28;4994359;28;20221;-66
2023/09/21 13:30:30;;;;;;;2.42;1.02;;;;;;;24.54;52.69;98865.78;4993711;28;20265;-68
2023/09/21 13:32:58;;;;;;;3.53;1.25;;;;;;;24.52;52.70;98867.97;4991484;28;20686;-66
2023/09/21 13:35:28;;;;;;;2.88;1.20;;;;;;;24.48;52.94;98856.03;4992529;28;20202;-67
2023/09/21 13:37:56;;;;;;;4.10;1.58;;;;;;;24.45;53.38;98859.31;4994037;28;20232;-66
2023/09/21 13:40:23;;;;;;;5.10;1.50;;;;;;;24.39;53.67;98836.84;4993670;28;20590;-68
2023/09/21 13:42:51;;;;;;;3.47;1.33;;;;;;;24.45;53.08;98841.13;4993499;28;20323;-68
2023/09/21 13:45:19;;;;;;;3.25;1.38;;;;;;;24.54;52.51;98823.22;4993141;28;20201;-67
2023/09/21 13:47:48;;;;;;;4.00;1.40;;;;;;;24.52;52.50;98822.72;4993460;28;20775;-67
2023/09/21 13:50:18;;;;;;;4.82;1.42;;;;;;;24.54;52.43;98822.44;4994288;28;20206;-69
2023/09/21 13:52:47;;;;;;;4.47;1.48;;;;;;;24.53;52.30;98812.69;4994225;28;20300;-67
2023/09/21 13:55:15;;;;;;;3.38;1.35;;;;;;;24.69;50.81;98814.22;4994617;28;20202;-69
2023/09/21 13:57:46;;;;;;;3.42;1.50;;;;;;;24.77;50.66;98800.06;4992767;28;20200;-68
2023/09/21 14:00:14;;;;;;;5.75;1.88;;;;;;;24.74;50.74;98800.63;4994291;28;20321;-69
2023/09/21 14:02:44;;;;;;;4.93;1.92;;;;;;;24.68;51.25;98791.72;4995595;28;20209;-68
2023/09/21 14:05:13;;;;;;;6.35;1.75;;;;;;;24.81;50.69;98794.88;4993816;28;20213;-68
2023/09/21 14:07:41;;;;;;;3.15;1.73;;;;;;;24.86;50.60;98790.25;4994461;28;20217;-68
2023/09/21 14:10:12;;;;;;;5.10;1.60;;;;;;;24.86;50.74;98787.53;4995701;28;20281;-67
2023/09/21 14:12:40;;;;;;;5.65;1.67;;;;;;;24.93;50.65;98785.34;4994549;28;20644;-69
2023/09/21 14:15:09;;;;;;;4.40;1.40;;;;;;;24.95;50.30;98788.59;4992579;28;20198;-67
2023/09/21 14:17:39;;;;;;;5.13;1.55;;;;;;;25.02;50.43;98780.94;4993516;28;20213;-68
2023/09/21 14:20:08;;;;;;;5.60;1.40;;;;;;;24.93;50.17;98777.22;4993674;28;20865;-68
2023/09/21 14:22:38;;;;;;;3.90;1.38;;;;;;;24.91;50.36;98778.56;4993307;28;20819;-68
2023/09/21 14:25:08;;;;;;;3.75;1.48;;;;;;;24.97;49.88;98772.88;4992470;28;20735;-69
2023/09/21 14:27:37;;;;;;;4.80;1.42;;;;;;;24.89;50.37;98780.75;4993071;28;20195;-70
2023/09/21 14:30:06;;;;;;;2.83;1.30;;;;;;;24.89;50.11;98776.13;4991676;28;20667;-68
2023/09/21 14:32:35;;;;;;;2.88;1.20;;;;;;;24.88;50.24;98769.09;4993879;28;20240;-69
2023/09/21 14:35:03;;;;;;;2.90;1.48;;;;;;;24.88;50.28;98769.09;4994024;28;20326;-69
2023/09/21 14:37:31;;;;;;;5.30;1.60;;;;;;;24.88;50.50;98774.53;4993846;28;20212;-69
2023/09/21 14:39:59;;;;;;;2.13;1.00;;;;;;;25.02;49.77;98763.88;4993093;28;20351;-68
2023/09/21 14:42:28;;;;;;;3.03;1.25;;;;;;;25.00;49.93;98766.84;4993426;28;20225;-68
2023/09/21 14:44:57;;;;;;;5.15;1.23;;;;;;;25.01;50.02;98760.34;4992304;28;20202;-68
2023/09/21 14:47:28;;;;;;;4.28;1.40;;;;;;;25.04;50.11;98757.06;4993202;28;21701;-68
2023/09/21 14:49:56;;;;;;;5.82;1.33;;;;;;;25.01;50.16;98757.63;4994391;28;20220;-69
2023/09/21 14:52:26;;;;;;;2.83;0.95;;;;;;;25.11;49.91;98752.13;4993504;28;20201;-67
2023/09/21 14:54:55;;;;;;;3.92;1.90;;;;;;;25.02;50.15;98759.25;4992374;28;20286;-66
2023/09/21 14:57:24;;;;;;;5.60;2.00;;;;;;;24.99;50.40;98754.38;4992509;28;20228;-68
2023/09/21 14:59:52;;;;;;;6.00;1.80;;;;;;;25.02;49.96;98751.13;4993171;28;20230;-68
2023/09/21 15:02:22;;;;;;;4.57;1.33;;;;;;;25.13;49.30;98753.75;4992125;28;20231;-67
2023/09/21 15:04:50;;;;;;;5.43;1.45;;;;;;;25.14;48.92;98755.38;4993607;28;20322;-67
2023/09/21 15:07:18;;;;;;;3.55;1.67;;;;;;;25.08;49.11;98752.69;4994143;28;20229;-66
2023/09/21 15:09:45;;;;;;;6.07;2.15;;;;;;;25.24;48.92;98739.81;4992762;28;20210;-64
2023/09/21 15:12:15;;;;;;;2.65;1.60;;;;;;;25.27;49.07;98733.00;4994685;28;20878;-70
2023/09/21 15:14:43;;;;;;;5.88;1.77;;;;;;;25.14;49.52;98733.69;4994375;28;20738;-69